createdAt,value
2023-05-21T00:02:24.079Z,99436.13
2023-05-21T00:04:56.201Z,99438.16
2023-05-21T00:07:28.341Z,99421.78
2023-05-21T00:10:00.619Z,99433.03
2023-05-21T00:12:33.452Z,99421.38
2023-05-21T00:15:05.811Z,99421.97
2023-05-21T00:17:38.363Z,99422.97
2023-05-21T00:20:10.756Z,99414.78
2023-05-21T00:22:42.773Z,99418.28
2023-05-21T00:25:16.729Z,99414.97
2023-05-21T00:27:49.489Z,99412.72
2023-05-21T00:30:21.569Z,99411.72
2023-05-21T00:32:53.627Z,99413.34
2023-05-21T00:35:29.542Z,99404.53
2023-05-21T00:38:01.972Z,99405.72
2023-05-21T00:40:37.431Z,99409.63
2023-05-21T00:43:14.365Z,99406.16
2023-05-21T00:45:48.796Z,99412.31
2023-05-21T00:48:21.082Z,99408.59
2023-05-21T00:50:53.460Z,99403.25
2023-05-21T00:53:25.935Z,99399.31
2023-05-21T00:55:58.097Z,99401.56
2023-05-21T00:58:31.184Z,99401.56
2023-05-21T01:01:04.020Z,99398.69
2023-05-21T01:03:39.052Z,99395.56
2023-05-21T01:06:16.188Z,99393.72
2023-05-21T01:08:48.663Z,99389.78
2023-05-21T01:11:22.496Z,99397.59
2023-05-21T01:13:54.836Z,99391.44
2023-05-21T01:16:26.906Z,99387.97
2023-05-21T01:18:59.884Z,99373.00
2023-05-21T01:21:37.628Z,99371.16
2023-05-21T01:24:11.787Z,99373.00
2023-05-21T01:26:44.475Z,99371.34
2023-05-21T01:29:18.525Z,99370.94
2023-05-21T01:31:55.663Z,99377.50
2023-05-21T01:34:40.050Z,99375.22
2023-05-21T01:37:30.216Z,99371.75
2023-05-21T01:40:12.431Z,99372.16
2023-05-21T01:42:47.687Z,99372.97
2023-05-21T01:45:22.573Z,99379.09
2023-05-21T01:47:56.873Z,99375.63
2023-05-21T01:50:30.127Z,99382.81
2023-05-21T01:53:03.984Z,99388.13
2023-05-21T01:55:39.671Z,99381.34
2023-05-21T01:58:12.145Z,99376.22
2023-05-21T02:00:45.488Z,99371.91
2023-05-21T02:03:19.667Z,99374.34
2023-05-21T02:05:52.236Z,99378.41
2023-05-21T02:08:25.739Z,99375.13
2023-05-21T02:10:57.802Z,99373.50
2023-05-21T02:13:30.868Z,99367.56
2023-05-21T02:16:02.805Z,99363.25
2023-05-21T02:18:36.597Z,99375.09
2023-05-21T02:21:08.557Z,99372.66
2023-05-21T02:23:42.407Z,99379.75
2023-05-21T02:26:14.493Z,99365.00
2023-05-21T02:28:46.560Z,99374.59
2023-05-21T02:31:18.541Z,99376.84
2023-05-21T02:33:51.061Z,99362.06
2023-05-21T02:36:25.545Z,99368.22
2023-05-21T02:38:57.955Z,99362.72
2023-05-21T02:41:30.021Z,99368.03
2023-05-21T02:44:02.079Z,99369.03
2023-05-21T02:46:34.121Z,99361.25
2023-05-21T02:49:06.460Z,99356.97
2023-05-21T02:51:38.459Z,99362.66
2023-05-21T02:54:13.447Z,99361.84
2023-05-21T02:56:48.506Z,99362.03
2023-05-21T02:59:20.566Z,99352.81
2023-05-21T03:01:53.907Z,99367.94
2023-05-21T03:04:28.399Z,99366.28
2023-05-21T03:07:02.310Z,99361.81
2023-05-21T03:09:34.334Z,99365.50
2023-05-21T03:12:09.829Z,99362.56
2023-05-21T03:14:46.629Z,99365.25
2023-05-21T03:17:19.305Z,99364.03
2023-05-21T03:19:52.279Z,99372.84
2023-05-21T03:22:24.230Z,99359.72
2023-05-21T03:24:56.558Z,99359.91
2023-05-21T03:27:28.986Z,99364.22
2023-05-21T03:30:01.362Z,99359.53
2023-05-21T03:32:38.180Z,99358.72
2023-05-21T03:35:11.299Z,99350.75
2023-05-21T03:37:43.271Z,99356.06
2023-05-21T03:40:18.122Z,99358.53
2023-05-21T03:42:50.046Z,99360.19
2023-05-21T03:45:22.403Z,99363.84
2023-05-21T03:48:20.168Z,99375.09
2023-05-21T03:50:52.342Z,99367.94
2023-05-21T03:53:24.772Z,99365.91
2023-05-21T03:55:56.889Z,99362.03
2023-05-21T03:58:30.937Z,99372.47
2023-05-21T04:01:05.023Z,99363.13
2023-05-21T04:03:40.086Z,99364.16
2023-05-21T04:06:13.447Z,99372.38
2023-05-21T04:08:45.644Z,99370.78
2023-05-21T04:11:17.922Z,99370.19
2023-05-21T04:13:50.591Z,99366.09
2023-05-21T04:16:24.726Z,99370.25
2023-05-21T04:18:57.778Z,99370.88
2023-05-21T04:21:32.559Z,99365.00
2023-05-21T04:24:04.627Z,99372.41
2023-05-21T04:26:56.236Z,99367.34
2023-05-21T04:29:30.143Z,99373.50
2023-05-21T04:32:02.679Z,99376.22
2023-05-21T04:34:34.849Z,99377.91
2023-05-21T04:37:07.142Z,99375.44
2023-05-21T04:39:41.259Z,99377.91
2023-05-21T04:42:14.270Z,99374.44
2023-05-21T04:44:46.734Z,99377.09
2023-05-21T04:47:19.567Z,99380.41
2023-05-21T04:49:53.561Z,99382.84
2023-05-21T04:52:27.081Z,99387.75
2023-05-21T04:54:59.307Z,99382.22
2023-05-21T04:57:31.536Z,99377.69
2023-05-21T05:00:05.845Z,99374.56
2023-05-21T05:02:43.496Z,99378.00
2023-05-21T05:05:18.248Z,99374.22
2023-05-21T05:07:50.144Z,99373.75
2023-05-21T05:10:22.350Z,99371.16
2023-05-21T05:12:55.181Z,99370.22
2023-05-21T05:15:27.277Z,99373.31
2023-05-21T05:17:59.697Z,99377.69
2023-05-21T05:20:34.182Z,99380.16
2023-05-21T05:23:06.322Z,99379.75
2023-05-21T05:25:38.727Z,99373.78
2023-05-21T05:28:10.980Z,99371.50
2023-05-21T05:30:42.813Z,99373.28
2023-05-21T05:33:24.662Z,99377.66
2023-05-21T05:35:56.668Z,99375.31
2023-05-21T05:38:28.794Z,99376.56
2023-05-21T05:41:04.178Z,99369.63
2023-05-21T05:43:36.620Z,99367.69
2023-05-21T05:46:09.360Z,99356.81
2023-05-21T05:48:41.762Z,99361.03
2023-05-21T05:51:15.481Z,99361.53
2023-05-21T05:53:48.204Z,99357.22
2023-05-21T05:56:23.076Z,99356.72
2023-05-21T05:58:55.303Z,99348.03
2023-05-21T06:01:27.257Z,99360.66
2023-05-21T06:03:59.580Z,99349.34
2023-05-21T06:06:36.869Z,99348.75
2023-05-21T06:09:08.851Z,99342.22
2023-05-21T06:11:40.770Z,99343.53
2023-05-21T06:14:15.616Z,99352.00
2023-05-21T06:16:47.804Z,99359.41
2023-05-21T06:19:22.779Z,99358.59
2023-05-21T06:21:54.951Z,99349.56
2023-05-21T06:24:27.212Z,99348.72
2023-05-21T06:26:59.599Z,99344.91
2023-05-21T06:29:31.859Z,99352.94
2023-05-21T06:32:09.191Z,99351.19
2023-05-21T06:34:41.482Z,99344.13
2023-05-21T06:37:13.594Z,99342.56
2023-05-21T06:39:46.104Z,99343.50
2023-05-21T06:42:18.370Z,99337.31
2023-05-21T06:45:19.708Z,99342.97
2023-05-21T06:47:52.135Z,99337.22
2023-05-21T06:50:24.176Z,99333.06
2023-05-21T06:52:56.334Z,99331.84
2023-05-21T06:55:28.361Z,99335.91
2023-05-21T06:58:18.974Z,99338.06
2023-05-21T07:00:52.239Z,99337.19
2023-05-21T07:03:25.912Z,99336.72
2023-05-21T07:05:58.909Z,99343.44
2023-05-21T07:08:30.899Z,99336.28
2023-05-21T07:11:04.284Z,99344.59
2023-05-21T07:13:38.230Z,99338.91
2023-05-21T07:16:14.041Z,99345.28
2023-05-21T07:18:47.609Z,99347.34
2023-05-21T07:21:20.154Z,99344.00
2023-05-21T07:23:53.634Z,99334.66
2023-05-21T07:26:26.705Z,99341.59
2023-05-21T07:32:31.919Z,99335.19
2023-05-21T07:35:09.686Z,99332.84
2023-05-21T07:37:42.661Z,99339.09
2023-05-21T07:40:15.162Z,99330.94
2023-05-21T07:42:48.294Z,99338.81
2023-05-21T07:45:24.297Z,99324.44
2023-05-21T07:47:59.378Z,99321.09
2023-05-21T07:50:32.847Z,99325.00
2023-05-21T07:53:05.613Z,99323.34
2023-05-21T07:55:38.559Z,99318.72
2023-05-21T07:58:13.965Z,99324.13
2023-05-21T08:00:47.963Z,99317.09
2023-05-21T08:03:20.805Z,99320.59
2023-05-21T08:05:54.678Z,99324.25
2023-05-21T08:08:27.241Z,99327.94
2023-05-21T08:11:01.856Z,99314.56
2023-05-21T08:13:34.920Z,99319.22
2023-05-21T08:16:08.779Z,99320.63
2023-05-21T08:18:41.577Z,99326.59
2023-05-21T08:21:13.526Z,99315.97
2023-05-21T08:23:49.962Z,99316.41
2023-05-21T08:26:22.011Z,99314.88
2023-05-21T08:28:53.964Z,99317.88
2023-05-21T08:31:26.428Z,99306.06
2023-05-21T08:34:00.742Z,99299.69
2023-05-21T08:36:50.168Z,99307.13
2023-05-21T08:39:48.109Z,99297.06
2023-05-21T08:42:45.608Z,99295.09
2023-05-21T08:45:23.570Z,99296.00
2023-05-21T08:47:57.600Z,99303.44
2023-05-21T08:50:32.806Z,99296.34
2023-05-21T08:53:19.883Z,99296.00
2023-05-21T08:56:01.971Z,99297.13
2023-05-21T08:58:53.050Z,99295.13
2023-05-21T09:01:28.405Z,99287.47
2023-05-21T09:06:52.069Z,99294.94
2023-05-21T09:09:47.121Z,99291.31
2023-05-21T09:12:19.665Z,99293.28
2023-05-21T09:14:55.810Z,99292.00
2023-05-21T09:17:33.600Z,99289.47
2023-05-21T09:20:18.204Z,99283.72
2023-05-21T09:23:05.436Z,99286.38
2023-05-21T09:25:38.390Z,99290.91
2023-05-21T09:28:16.626Z,99289.25
2023-05-21T09:30:54.736Z,99292.19
2023-05-21T09:33:29.849Z,99285.09
2023-05-21T09:36:02.611Z,99289.28
2023-05-21T09:38:37.994Z,99285.19
2023-05-21T09:41:11.374Z,99277.63
2023-05-21T09:43:45.082Z,99286.28
2023-05-21T09:46:40.854Z,99282.53
2023-05-21T09:49:25.038Z,99288.75
2023-05-21T09:51:58.585Z,99273.22
2023-05-21T09:54:35.034Z,99277.69
2023-05-21T09:57:06.917Z,99275.91
2023-05-21T09:59:39.765Z,99273.53
2023-05-21T10:02:24.730Z,99275.09
2023-05-21T10:04:57.507Z,99275.16
2023-05-21T10:07:29.785Z,99272.84
2023-05-21T10:10:14.804Z,99280.47
2023-05-21T10:12:51.164Z,99275.16
2023-05-21T10:15:25.131Z,99268.19
2023-05-21T10:17:57.755Z,99260.75
2023-05-21T10:20:30.049Z,99273.81
2023-05-21T10:23:03.426Z,99264.00
2023-05-21T10:26:03.868Z,99263.47
2023-05-21T10:28:37.892Z,99249.56
2023-05-21T10:31:10.733Z,99248.91
2023-05-21T10:33:43.615Z,99237.56
2023-05-21T10:36:18.966Z,99246.75
2023-05-21T10:38:51.424Z,99245.81
2023-05-21T10:41:26.882Z,99243.00
2023-05-21T10:44:20.535Z,99235.78
2023-05-21T10:47:18.709Z,99248.09
2023-05-21T10:50:11.374Z,99239.00
2023-05-21T10:52:57.346Z,99238.41
2023-05-21T10:55:32.570Z,99230.06
2023-05-21T10:58:29.903Z,99240.81
2023-05-21T11:01:06.129Z,99226.59
2023-05-21T11:03:38.344Z,99232.84
2023-05-21T11:06:22.611Z,99235.66
2023-05-21T11:08:55.704Z,99229.72
2023-05-21T11:11:51.355Z,99233.25
2023-05-21T11:14:37.020Z,99234.69
2023-05-21T11:17:14.933Z,99234.50
2023-05-21T11:19:51.535Z,99223.00
2023-05-21T11:22:25.340Z,99234.56
2023-05-21T11:25:01.984Z,99235.56
2023-05-21T11:27:36.814Z,99236.03
2023-05-21T11:30:10.805Z,99237.28
2023-05-21T11:33:03.997Z,99230.97
2023-05-21T11:35:55.439Z,99229.13
2023-05-21T11:38:34.123Z,99237.75
2023-05-21T11:41:05.993Z,99223.63
2023-05-21T11:43:40.549Z,99225.28
2023-05-21T11:46:12.636Z,99218.84
2023-05-21T11:48:44.774Z,99222.47
2023-05-21T11:51:16.691Z,99204.72
2023-05-21T11:53:49.032Z,99200.03
2023-05-21T11:56:20.913Z,99209.63
2023-05-21T11:58:55.211Z,99202.88
2023-05-21T12:01:28.080Z,99199.81
2023-05-21T12:04:03.532Z,99199.84
2023-05-21T12:06:35.386Z,99217.03
2023-05-21T12:09:07.451Z,99202.97
2023-05-21T12:11:41.984Z,99208.34
2023-05-21T12:14:14.122Z,99203.72
2023-05-21T12:16:46.573Z,99205.34
2023-05-21T12:19:19.303Z,99202.75
2023-05-21T12:21:53.210Z,99189.78
2023-05-21T12:24:24.915Z,99192.81
2023-05-21T12:27:01.965Z,99184.94
2023-05-21T12:29:33.793Z,99194.16
2023-05-21T12:32:07.578Z,99182.47
2023-05-21T12:34:47.110Z,99187.66
2023-05-21T12:37:23.231Z,99179.13
2023-05-21T12:39:55.656Z,99183.53
2023-05-21T12:42:31.694Z,99188.19
2023-05-21T12:45:10.403Z,99186.56
2023-05-21T12:47:48.244Z,99181.63
2023-05-21T12:50:20.931Z,99176.53
2023-05-21T12:52:56.495Z,99172.34
2023-05-21T12:55:28.687Z,99163.22
2023-05-21T12:58:09.314Z,99173.09
2023-05-21T13:00:42.162Z,99168.41
2023-05-21T13:03:16.729Z,99159.88
2023-05-21T13:05:49.396Z,99157.59
2023-05-21T13:08:21.274Z,99162.81
2023-05-21T13:10:53.587Z,99165.75
2023-05-21T13:13:25.543Z,99175.44
2023-05-21T13:15:57.410Z,99166.25
2023-05-21T13:18:29.744Z,99168.69
2023-05-21T13:21:01.417Z,99158.31
2023-05-21T13:23:33.268Z,99152.50
2023-05-21T13:26:05.016Z,99152.16
2023-05-21T13:28:36.910Z,99142.56
2023-05-21T13:31:10.872Z,99154.44
2023-05-21T13:33:44.832Z,99145.91
2023-05-21T13:36:17.026Z,99145.91
2023-05-21T13:38:51.144Z,99142.09
2023-05-21T13:41:23.045Z,99155.41
2023-05-21T13:43:55.073Z,99138.47
2023-05-21T13:46:27.127Z,99137.84
2023-05-21T13:48:58.955Z,99138.38
2023-05-21T13:51:38.765Z,99135.78
2023-05-21T13:54:11.407Z,99131.16
2023-05-21T13:56:43.446Z,99121.91
2023-05-21T13:59:16.844Z,99130.66
2023-05-21T14:01:50.139Z,99133.94
2023-05-21T14:04:24.914Z,99126.03
2023-05-21T14:06:57.223Z,99135.88
2023-05-21T14:09:29.640Z,99132.63
2023-05-21T14:12:06.596Z,99148.78
2023-05-21T14:14:40.566Z,99126.13
2023-05-21T14:17:13.519Z,99138.78
2023-05-21T14:19:45.471Z,99128.88
2023-05-21T14:22:19.821Z,99138.50
2023-05-21T14:24:52.806Z,99140.06
2023-05-21T14:27:24.884Z,99129.81
2023-05-21T14:29:56.704Z,99130.34
2023-05-21T14:32:28.599Z,99127.31
2023-05-21T14:35:00.681Z,99113.25
2023-05-21T14:37:32.413Z,99121.28
2023-05-21T14:40:07.744Z,99140.56
2023-05-21T14:42:39.741Z,99132.69
2023-05-21T14:45:19.150Z,99125.00
2023-05-21T14:47:51.210Z,99127.06
2023-05-21T14:50:23.376Z,99127.75
2023-05-21T14:52:55.670Z,99124.78
2023-05-21T14:55:30.963Z,99118.72
2023-05-21T14:58:08.578Z,99119.75
2023-05-21T15:00:40.500Z,99127.09
2023-05-21T15:06:12.345Z,99121.03
2023-05-21T15:08:43.915Z,99127.81
2023-05-21T15:11:15.647Z,99134.28
2023-05-21T15:13:47.293Z,99126.47
2023-05-21T15:16:19.815Z,99132.72
2023-05-21T15:18:52.074Z,99128.09
2023-05-21T15:21:27.952Z,99125.38
2023-05-21T15:23:59.874Z,99121.28
2023-05-21T15:26:31.506Z,99124.28
2023-05-21T15:29:03.986Z,99121.63
2023-05-21T15:31:35.697Z,99118.09
2023-05-21T15:34:07.462Z,99120.53
2023-05-21T15:36:42.281Z,99111.38
2023-05-21T15:39:15.225Z,99101.63
2023-05-21T15:41:47.001Z,99106.25
2023-05-21T15:44:20.972Z,99101.34
2023-05-21T15:46:54.847Z,99092.13
2023-05-21T15:49:26.498Z,99087.78
2023-05-21T15:52:00.329Z,99084.50
2023-05-21T15:54:31.997Z,99090.22
2023-05-21T15:57:03.672Z,99094.28
2023-05-21T15:59:35.333Z,99097.81
2023-05-21T16:02:07.509Z,99084.91
2023-05-21T16:04:39.193Z,99079.69
2023-05-21T16:07:12.069Z,99081.38
2023-05-21T16:09:44.569Z,99078.13
2023-05-21T16:12:16.411Z,99086.84
2023-05-21T16:14:49.924Z,99074.41
2023-05-21T16:17:21.713Z,99077.44
2023-05-21T16:19:53.606Z,99078.25
2023-05-21T16:22:25.341Z,99082.09
2023-05-21T16:24:56.979Z,99089.94
2023-05-21T16:27:28.561Z,99077.78
2023-05-21T16:30:00.356Z,99080.00
2023-05-21T16:32:31.987Z,99087.59
2023-05-21T16:35:03.902Z,99080.56
2023-05-21T16:37:35.628Z,99081.16
2023-05-21T16:40:07.569Z,99097.16
2023-05-21T16:42:39.968Z,99097.75
2023-05-21T16:45:22.346Z,99089.88
2023-05-21T16:47:54.106Z,99091.28
2023-05-21T16:50:26.586Z,99093.75
2023-05-21T16:53:02.258Z,99107.31
2023-05-21T16:55:34.798Z,99098.41
2023-05-21T16:58:07.161Z,99100.88
2023-05-21T17:00:39.165Z,99098.97
2023-05-21T17:03:11.904Z,99099.81
2023-05-21T17:05:43.639Z,99095.28
2023-05-21T17:08:15.248Z,99099.94
2023-05-21T17:10:46.905Z,99105.38
2023-05-21T17:13:22.826Z,99107.34
2023-05-21T17:15:54.951Z,99101.97
2023-05-21T17:18:26.567Z,99107.13
2023-05-21T17:20:59.111Z,99104.16
2023-05-21T17:23:30.822Z,99118.47
2023-05-21T17:26:02.448Z,99122.00
2023-05-21T17:28:34.040Z,99126.84
2023-05-21T17:31:06.901Z,99128.44
2023-05-21T17:33:39.137Z,99115.47
2023-05-21T17:36:10.742Z,99136.78
2023-05-21T17:38:42.760Z,99127.84
2023-05-21T17:41:16.377Z,99129.97
2023-05-21T17:43:48.001Z,99124.53
2023-05-21T17:46:19.681Z,99135.91
2023-05-21T17:48:51.364Z,99136.66
2023-05-21T17:51:23.017Z,99140.72
2023-05-21T17:53:54.688Z,99142.28
2023-05-21T17:56:27.405Z,99147.38
2023-05-21T17:58:59.014Z,99142.22
2023-05-21T18:01:31.043Z,99137.25
2023-05-21T18:04:03.669Z,99140.19
2023-05-21T18:06:35.483Z,99141.50
2023-05-21T18:09:08.007Z,99139.03
2023-05-21T18:11:39.722Z,99142.50
2023-05-21T18:14:11.363Z,99145.97
2023-05-21T18:16:43.090Z,99142.97
2023-05-21T18:19:14.813Z,99134.31
2023-05-21T18:21:47.492Z,99136.72
2023-05-21T18:24:19.132Z,99135.34
2023-05-21T18:26:50.703Z,99142.34
2023-05-21T18:29:22.255Z,99136.84
2023-05-21T18:31:54.092Z,99145.16
2023-05-21T18:34:25.796Z,99145.34
2023-05-21T18:36:58.809Z,99139.34
2023-05-21T18:39:30.776Z,99138.25
2023-05-21T18:42:13.045Z,99147.91
2023-05-21T18:44:46.508Z,99149.44
2023-05-21T18:47:18.290Z,99157.41
2023-05-21T18:49:49.910Z,99155.69
2023-05-21T18:52:21.579Z,99153.00
2023-05-21T18:54:53.993Z,99156.59
2023-05-21T18:57:25.758Z,99158.91
2023-05-21T18:59:59.550Z,99159.91
2023-05-21T19:02:31.921Z,99170.06
2023-05-21T19:05:03.676Z,99156.47
2023-05-21T19:07:36.234Z,99146.13
2023-05-21T19:10:08.060Z,99165.72
2023-05-21T19:12:41.889Z,99163.53
2023-05-21T19:15:13.648Z,99176.91
2023-05-21T19:17:45.249Z,99170.88
2023-05-21T19:20:24.029Z,99175.63
2023-05-21T19:22:57.130Z,99166.06
2023-05-21T19:25:31.813Z,99168.88
2023-05-21T19:28:03.427Z,99176.88
2023-05-21T19:30:36.486Z,99179.56
2023-05-21T19:33:08.432Z,99175.72
2023-05-21T19:35:43.170Z,99172.94
2023-05-21T19:38:14.952Z,99181.75
2023-05-21T19:40:46.686Z,99187.31
2023-05-21T19:43:18.267Z,99189.91
2023-05-21T19:45:50.090Z,99186.31
2023-05-21T19:48:21.820Z,99184.38
2023-05-21T19:50:53.490Z,99184.03
2023-05-21T19:53:25.063Z,99186.63
2023-05-21T19:55:56.994Z,99183.53
2023-05-21T19:58:30.476Z,99182.38
2023-05-21T20:01:03.446Z,99191.41
2023-05-21T20:03:38.241Z,99185.59
2023-05-21T20:06:09.915Z,99192.38
2023-05-21T20:08:42.024Z,99197.44
2023-05-21T20:11:13.720Z,99191.72
2023-05-21T20:13:52.348Z,99194.06
2023-05-21T20:16:24.350Z,99186.97
2023-05-21T20:18:58.328Z,99193.53
2023-05-21T20:21:31.552Z,99198.91
2023-05-21T20:24:03.568Z,99199.97
2023-05-21T20:26:36.531Z,99189.38
2023-05-21T20:29:08.350Z,99198.59
2023-05-21T20:31:40.077Z,99195.34
2023-05-21T20:34:12.402Z,99193.38
2023-05-21T20:36:44.127Z,99197.91
2023-05-21T20:39:15.894Z,99191.19
2023-05-21T20:41:47.834Z,99196.41
2023-05-21T20:44:21.311Z,99193.16
2023-05-21T20:46:54.082Z,99191.75
2023-05-21T20:49:25.920Z,99204.63
2023-05-21T20:51:57.593Z,99199.38
2023-05-21T20:54:30.809Z,99197.38
2023-05-21T20:57:04.360Z,99198.19
2023-05-21T20:59:36.013Z,99200.75
2023-05-21T21:02:10.929Z,99202.25
2023-05-21T21:04:42.609Z,99204.13
2023-05-21T21:07:15.465Z,99203.53
2023-05-21T21:09:47.351Z,99206.94
2023-05-21T21:12:25.246Z,99208.47
2023-05-21T21:14:58.373Z,99209.97
2023-05-21T21:17:30.036Z,99208.22
2023-05-21T21:20:01.674Z,99219.53
2023-05-21T21:22:33.619Z,99208.78
2023-05-21T21:25:05.548Z,99217.06
2023-05-21T21:27:37.236Z,99223.72
2023-05-21T21:30:09.105Z,99210.78
2023-05-21T21:32:41.224Z,99218.00
2023-05-21T21:35:12.968Z,99212.06
2023-05-21T21:37:44.625Z,99212.28
2023-05-21T21:40:16.455Z,99211.97
2023-05-21T21:42:51.185Z,99202.97
2023-05-21T21:45:22.796Z,99202.59
2023-05-21T21:47:54.483Z,99202.84
2023-05-21T21:50:26.092Z,99207.41
2023-05-21T21:52:57.998Z,99214.03
2023-05-21T21:55:29.736Z,99212.63
2023-05-21T21:58:01.409Z,99215.78
2023-05-21T22:00:32.992Z,99207.63
2023-05-21T22:03:04.699Z,99214.72
2023-05-21T22:05:36.365Z,99212.47
2023-05-21T22:08:08.057Z,99211.09
2023-05-21T22:10:39.881Z,99212.56
2023-05-21T22:13:12.895Z,99206.66
2023-05-21T22:15:44.545Z,99215.72
2023-05-21T22:18:31.966Z,99220.28
2023-05-21T22:21:14.319Z,99225.63
2023-05-21T22:23:46.378Z,99220.13
2023-05-21T22:26:17.942Z,99218.69
2023-05-21T22:28:50.036Z,99212.25
2023-05-21T22:31:21.746Z,99207.38
2023-05-21T22:33:53.381Z,99215.84
2023-05-21T22:36:24.945Z,99201.72
2023-05-21T22:38:56.644Z,99214.56
2023-05-21T22:41:28.221Z,99208.00
2023-05-21T22:44:00.071Z,99206.59
2023-05-21T22:46:32.097Z,99201.69
2023-05-21T22:49:04.672Z,99201.34
2023-05-21T22:51:39.358Z,99204.44
2023-05-21T22:54:11.047Z,99196.28
2023-05-21T22:56:43.221Z,99205.47
2023-05-21T22:59:15.073Z,99202.63
2023-05-21T23:01:46.706Z,99202.50
2023-05-21T23:04:20.697Z,99197.59
2023-05-21T23:06:58.310Z,99199.06
2023-05-21T23:09:29.963Z,99198.50
2023-05-21T23:12:01.534Z,99190.91
2023-05-21T23:14:33.391Z,99187.88
2023-05-21T23:17:05.748Z,99193.44
2023-05-21T23:19:37.639Z,99182.78
2023-05-21T23:22:09.407Z,99181.59
2023-05-21T23:24:41.173Z,99184.94
2023-05-21T23:27:12.810Z,99180.63
2023-05-21T23:29:44.383Z,99184.34
2023-05-21T23:32:16.026Z,99182.13
2023-05-21T23:34:48.371Z,99187.91
2023-05-21T23:37:20.096Z,99181.97
2023-05-21T23:39:52.008Z,99183.25
2023-05-21T23:42:23.658Z,99182.28
2023-05-21T23:44:55.415Z,99186.19
2023-05-21T23:47:27.001Z,99185.00
2023-05-21T23:49:58.748Z,99193.50
2023-05-21T23:52:30.519Z,99192.06
2023-05-21T23:55:02.182Z,99189.81
2023-05-21T23:57:33.716Z,99191.31
